Time;durP1;ratioP1;P1;durP2;ratioP2;P2;SDS_P1;SDS_P2;PMS_P1;PMS_P2;Temp;Humidity;BMP_temperature;BMP_pressure;BME280_temperature;BME280_humidity;BME280_pressure;Samples;Min_cycle;Max_cycle;Signal;HPM_P1;HPM_P2
2022/08/06 00:00:29;;;;;;;1999.90;999.90;;;;;;;22.43;76.67;95794.91;5005939;28;20096;-70
2022/08/06 00:02:54;;;;;;;1999.90;999.90;;;;;;;22.38;76.06;95797.13;5010731;28;20041;-70
2022/08/06 00:05:20;;;;;;;1999.90;999.90;;;;;;;22.15;75.70;95805.28;5026608;28;20040;-71
2022/08/06 00:07:45;;;;;;;1999.90;999.90;;;;;;;22.14;75.59;95812.63;5030995;28;20125;-70
2022/08/06 00:10:11;;;;;;;1999.90;999.90;;;;;;;22.46;75.61;95810.41;5011698;28;20028;-71
2022/08/06 00:12:37;;;;;;;1999.90;999.90;;;;;;;22.53;75.33;95820.59;5010668;28;20442;-71
2022/08/06 00:15:05;;;;;;;1999.90;999.90;;;;;;;22.56;75.50;95822.56;5022894;28;20065;-70
2022/08/06 00:17:30;;;;;;;1999.90;999.90;;;;;;;22.49;75.06;95820.53;5026082;28;20092;-70
2022/08/06 00:19:55;;;;;;;1999.90;999.90;;;;;;;22.06;75.72;95830.66;5010556;28;20521;-71
2022/08/06 00:22:21;;;;;;;1999.90;999.90;;;;;;;22.06;74.86;95846.91;4993277;28;20121;-71
2022/08/06 00:24:46;;;;;;;1999.90;999.90;;;;;;;21.28;77.67;95850.78;5002415;28;20087;-71
2022/08/06 00:27:11;;;;;;;1999.90;999.90;;;;;;;21.19;77.63;95842.91;5016398;28;20026;-70
2022/08/06 00:29:37;;;;;;;1999.90;999.90;;;;;;;21.09;80.41;95838.03;5018087;28;20131;-71
2022/08/06 00:32:02;;;;;;;1999.90;999.90;;;;;;;20.53;81.84;95840.25;5028251;28;20033;-70
2022/08/06 00:34:27;;;;;;;1999.90;999.90;;;;;;;20.32;82.71;95832.38;5021125;28;20478;-71
2022/08/06 00:36:53;;;;;;;1999.90;999.90;;;;;;;20.27;82.90;95836.16;5010189;28;20099;-70
2022/08/06 00:39:18;;;;;;;1999.90;999.90;;;;;;;20.69;82.87;95820.16;4999005;28;20041;-70
2022/08/06 00:41:44;;;;;;;1999.90;999.90;;;;;;;21.05;81.28;95831.78;5021553;28;20109;-70
2022/08/06 00:44:09;;;;;;;1999.90;999.90;;;;;;;20.95;79.98;95816.09;4996527;28;20037;-70
2022/08/06 00:46:35;;;;;;;1999.90;999.90;;;;;;;21.44;80.18;95816.34;5019043;28;20052;-71
2022/08/06 00:49:00;;;;;;;1999.90;999.90;;;;;;;21.71;78.96;95816.47;5012638;28;20030;-71
2022/08/06 00:51:25;;;;;;;1999.90;999.90;;;;;;;21.43;78.99;95803.97;5028499;28;20052;-71
2022/08/06 00:53:52;;;;;;;1999.90;999.90;;;;;;;21.40;77.90;95818.22;5030198;28;20040;-71
2022/08/06 00:56:17;;;;;;;1999.90;999.90;;;;;;;21.64;79.01;95811.69;5024290;28;20109;-71
2022/08/06 00:58:43;;;;;;;1999.90;999.90;;;;;;;21.93;78.20;95814.94;5000395;28;20157;-70
2022/08/06 01:01:10;;;;;;;1999.90;999.90;;;;;;;21.26;77.79;95836.84;5017107;28;20410;-70
2022/08/06 01:03:36;;;;;;;1999.90;999.90;;;;;;;19.94;82.02;95833.75;5030074;28;20037;-70
2022/08/06 01:06:01;;;;;;;1999.90;999.90;;;;;;;20.11;81.54;95833.41;5007120;28;20025;-70
2022/08/06 01:08:26;;;;;;;1999.90;999.90;;;;;;;19.86;82.76;95834.69;5014469;28;20506;-70
2022/08/06 01:10:51;;;;;;;1999.90;999.90;;;;;;;20.16;81.28;95835.84;5012918;28;20075;-71
2022/08/06 01:13:17;;;;;;;1999.90;999.90;;;;;;;20.23;81.51;95819.84;4997296;28;20022;-70
2022/08/06 01:15:51;;;;;;;1999.90;999.90;;;;;;;19.95;81.41;95811.03;5008607;28;20034;-70
2022/08/06 01:18:25;;;;;;;1999.90;999.90;;;;;;;19.97;81.49;95797.97;4973348;28;20088;-70
2022/08/06 01:21:05;;;;;;;1999.90;999.90;;;;;;;20.06;81.49;95809.38;5019896;28;20029;-70
2022/08/06 01:23:39;;;;;;;1999.90;999.90;;;;;;;20.38;80.92;95802.06;5012050;28;20030;-70
2022/08/06 01:26:20;;;;;;;1999.90;999.90;;;;;;;20.12;79.98;95805.31;5024419;28;20032;-71
2022/08/06 01:28:49;;;;;;;1999.90;999.90;;;;;;;20.54;79.38;95812.09;4992819;28;20069;-70
2022/08/06 01:31:28;;;;;;;1999.90;999.90;;;;;;;20.59;78.72;95820.72;5023487;28;20382;-70
2022/08/06 01:33:59;;;;;;;1999.90;999.90;;;;;;;20.53;79.81;95805.91;5029649;28;20057;-70
2022/08/06 01:36:32;;;;;;;1999.90;999.90;;;;;;;20.96;78.58;95804.13;5009960;28;20097;-71
2022/08/06 01:39:00;;;;;;;1999.90;999.90;;;;;;;21.00;78.03;95796.88;5009741;28;20026;-70
2022/08/06 01:41:38;;;;;;;1999.90;999.90;;;;;;;20.74;77.92;95800.19;5021387;28;20017;-69
2022/08/06 01:44:07;;;;;;;1999.90;999.90;;;;;;;20.73;77.73;95796.72;5007396;28;20025;-70
2022/08/06 01:46:36;;;;;;;1999.90;999.90;;;;;;;20.37;79.64;95795.09;5014578;28;20022;-70
2022/08/06 01:49:03;;;;;;;1999.90;999.90;;;;;;;20.23;79.93;95786.66;5010053;28;20033;-70
2022/08/06 01:51:31;;;;;;;1999.90;999.90;;;;;;;20.63;79.81;95793.78;5023383;28;20109;-70
2022/08/06 01:53:59;;;;;;;1999.90;999.90;;;;;;;20.92;78.46;95800.56;5011405;28;20028;-71
2022/08/06 01:56:26;;;;;;;1999.90;999.90;;;;;;;20.80;78.18;95811.50;5021968;28;20032;-70
2022/08/06 01:58:53;;;;;;;1999.90;999.90;;;;;;;21.05;77.89;95815.53;5009768;28;20105;-70
2022/08/06 02:01:21;;;;;;;1999.90;999.90;;;;;;;21.05;77.87;95802.03;4998878;28;20088;-71
2022/08/06 02:03:51;;;;;;;1999.90;999.90;;;;;;;21.19;77.63;95821.25;4989738;28;20470;-71
2022/08/06 02:06:24;;;;;;;1999.90;999.90;;;;;;;21.41;77.85;95819.00;5011161;28;20894;-70
2022/08/06 02:08:51;;;;;;;1999.90;999.90;;;;;;;21.12;77.46;95804.06;4992478;28;20101;-71
2022/08/06 02:11:16;;;;;;;1999.90;999.90;;;;;;;20.23;80.39;95813.66;5018028;28;20025;-70
2022/08/06 02:13:44;;;;;;;1999.90;999.90;;;;;;;20.42;79.60;95804.81;5007904;28;20028;-71
2022/08/06 02:16:12;;;;;;;1999.90;999.90;;;;;;;20.49;80.26;95810.44;5026616;28;20025;-71
2022/08/06 02:18:41;;;;;;;1999.90;999.90;;;;;;;20.93;78.75;95797.50;5029651;28;20052;-70
2022/08/06 02:21:10;;;;;;;1999.90;999.90;;;;;;;21.38;78.00;95808.88;5010559;28;20445;-70
2022/08/06 02:23:36;;;;;;;1999.90;999.90;;;;;;;21.68;77.41;95814.47;5023537;28;20034;-70
2022/08/06 02:26:03;;;;;;;1999.90;999.90;;;;;;;21.59;76.56;95811.22;4992031;28;20046;-71
2022/08/06 02:28:31;;;;;;;1999.90;999.90;;;;;;;21.64;76.17;95814.41;4997468;28;20043;-70
2022/08/06 02:30:57;;;;;;;1999.90;999.90;;;;;;;21.28;76.82;95758.78;5021213;22;20009;-65
2022/08/06 02:33:24;;;;;;;1999.90;999.90;;;;;;;21.06;76.47;95797.38;5028340;28;20042;-65
2022/08/06 02:35:53;;;;;;;1999.90;999.90;;;;;;;21.15;76.80;95814.97;5026145;28;20039;-65
2022/08/06 02:38:36;;;;;;;1999.90;999.90;;;;;;;20.37;79.83;95807.78;5033005;28;20026;-66
2022/08/06 02:41:27;;;;;;;1999.90;999.90;;;;;;;20.09;80.33;95791.69;5030983;28;20043;-65
2022/08/06 02:43:58;;;;;;;1999.90;999.90;;;;;;;20.42;79.64;95788.63;5011593;28;20049;-65
2022/08/06 02:46:28;;;;;;;1999.90;999.90;;;;;;;20.17;80.92;95788.84;5027915;28;20043;-65
2022/08/06 02:48:58;;;;;;;1999.90;999.90;;;;;;;20.48;81.20;95803.47;5031572;28;20330;-65
2022/08/06 02:51:32;;;;;;;1999.90;999.90;;;;;;;20.15;81.24;95801.09;5030900;28;20025;-65
2022/08/06 02:54:08;;;;;;;1999.90;999.90;;;;;;;20.17;82.26;95812.34;5012327;28;20029;-65
2022/08/06 02:56:38;;;;;;;1999.90;999.90;;;;;;;20.83;79.84;95781.06;5030326;28;20040;-67
2022/08/06 02:59:05;;;;;;;1999.90;999.90;;;;;;;20.56;79.11;95788.19;5010621;28;20030;-65
2022/08/06 03:01:40;;;;;;;1999.90;999.90;;;;;;;20.81;79.74;95802.25;5031035;28;20029;-66
2022/08/06 03:04:07;;;;;;;1999.90;999.90;;;;;;;20.38;79.93;95766.94;5011692;28;20471;-66
2022/08/06 03:06:34;;;;;;;1999.90;999.90;;;;;;;20.56;79.97;95799.78;5012195;28;20109;-66
2022/08/06 03:09:02;;;;;;;1999.90;999.90;;;;;;;20.05;81.74;95790.81;5012016;28;20037;-66
2022/08/06 03:11:32;;;;;;;1999.90;999.90;;;;;;;20.08;82.85;95790.13;5012794;28;20056;-66
2022/08/06 03:14:00;;;;;;;1999.90;999.90;;;;;;;20.75;79.73;95778.22;5010477;28;20474;-66
2022/08/06 03:16:27;;;;;;;1999.90;999.90;;;;;;;20.71;80.92;95793.56;5011462;28;20029;-66
2022/08/06 03:18:55;;;;;;;1999.90;999.90;;;;;;;20.97;79.72;95787.56;5012736;28;20109;-66
2022/08/06 03:21:22;;;;;;;1999.90;999.90;;;;;;;20.56;80.46;95796.31;5024305;28;20033;-66
2022/08/06 03:23:49;;;;;;;1999.90;999.90;;;;;;;21.13;80.25;95814.53;5013812;28;20502;-66
2022/08/06 03:26:16;;;;;;;1999.90;999.90;;;;;;;20.79;80.73;95799.13;5021681;28;20428;-66
2022/08/06 03:28:42;;;;;;;1999.90;999.90;;;;;;;20.08;83.20;95801.72;5011073;28;20834;-67
2022/08/06 03:31:09;;;;;;;1999.90;999.90;;;;;;;20.39;82.25;95814.44;5012306;28;20034;-66
2022/08/06 03:33:35;;;;;;;1999.90;999.90;;;;;;;20.40;81.85;95799.78;5010932;28;20037;-65
2022/08/06 03:36:01;;;;;;;1999.90;999.90;;;;;;;20.21;83.66;95826.72;5020247;28;20105;-68
2022/08/06 03:38:34;;;;;;;1999.90;999.90;;;;;;;20.38;82.86;95812.09;5032031;28;20506;-66
2022/08/06 03:41:00;;;;;;;1999.90;999.90;;;;;;;21.01;79.75;95795.75;5027438;28;20041;-66
2022/08/06 03:43:25;;;;;;;1999.90;999.90;;;;;;;21.02;80.54;95808.91;5015597;28;20112;-66
2022/08/06 03:45:56;;;;;;;1999.90;999.90;;;;;;;20.99;79.92;95816.97;5016918;28;20148;-66
2022/08/06 03:48:27;;;;;;;1999.90;999.90;;;;;;;21.09;80.00;95834.53;5047192;28;20036;-66
2022/08/06 03:50:53;;;;;;;1999.90;999.90;;;;;;;21.18;79.48;95830.50;5022647;28;20030;-66
2022/08/06 03:53:24;;;;;;;1999.90;999.90;;;;;;;20.68;80.16;95810.50;5011791;28;20022;-66
2022/08/06 03:55:51;;;;;;;1999.90;999.90;;;;;;;20.72;80.50;95830.25;5025398;28;20409;-66
2022/08/06 03:58:19;;;;;;;1999.90;999.90;;;;;;;20.63;80.07;95794.56;5009799;28;20097;-66
2022/08/06 04:00:49;;;;;;;1999.90;999.90;;;;;;;20.02;82.66;95805.81;5021974;28;20026;-66
2022/08/06 04:03:16;;;;;;;1999.90;999.90;;;;;;;20.19;83.26;95842.50;5030996;28;20029;-66
2022/08/06 04:05:43;;;;;;;1999.90;999.90;;;;;;;19.91;83.36;95797.44;5028671;28;20401;-66
2022/08/06 04:08:09;;;;;;;1999.90;999.90;;;;;;;20.13;83.53;95814.19;5020251;28;20040;-66
2022/08/06 04:10:40;;;;;;;1999.90;999.90;;;;;;;20.92;80.83;95833.81;5020786;28;20076;-66
2022/08/06 04:13:10;;;;;;;1999.90;999.90;;;;;;;20.93;80.43;95832.66;5022914;28;20121;-66
2022/08/06 04:15:39;;;;;;;1999.90;999.90;;;;;;;20.32;81.14;95794.56;5017759;28;20103;-66
2022/08/06 04:18:10;;;;;;;1999.90;999.90;;;;;;;20.50;80.89;95834.41;5026844;28;20036;-66
2022/08/06 04:20:37;;;;;;;1999.90;999.90;;;;;;;20.32;82.13;95832.38;5029002;28;20417;-66
2022/08/06 04:23:03;;;;;;;1999.90;999.90;;;;;;;20.25;82.42;95839.19;5028925;28;20056;-66
2022/08/06 04:25:35;;;;;;;1999.90;999.90;;;;;;;20.59;81.10;95850.44;5031231;28;20114;-66
2022/08/06 04:28:02;;;;;;;1999.90;999.90;;;;;;;19.63;83.85;95821.78;5023757;28;20025;-66
2022/08/06 04:30:28;;;;;;;1999.90;999.90;;;;;;;19.96;82.35;95820.69;5027588;28;20025;-66
2022/08/06 04:32:54;;;;;;;1999.90;999.90;;;;;;;19.78;84.45;95874.22;5014942;28;20025;-66
2022/08/06 04:35:20;;;;;;;1999.90;999.90;;;;;;;19.86;83.22;95840.09;5013720;28;20063;-66
2022/08/06 04:37:46;;;;;;;1999.90;999.90;;;;;;;20.10;80.49;95874.28;5022311;28;20061;-67
2022/08/06 04:40:12;;;;;;;1999.90;999.90;;;;;;;19.29;85.40;95887.84;5012775;28;20057;-66
2022/08/06 04:42:37;;;;;;;1999.90;999.90;;;;;;;18.89;84.39;95801.59;5024799;28;20029;-66
2022/08/06 04:45:04;;;;;;;1999.90;999.90;;;;;;;20.17;80.68;95823.94;5011119;28;20081;-66
2022/08/06 04:47:31;;;;;;;1999.90;999.90;;;;;;;19.71;82.07;95882.16;5023233;28;20040;-66
2022/08/06 04:49:56;;;;;;;1999.90;999.90;;;;;;;19.82;81.93;95893.22;5010620;28;20172;-66
2022/08/06 04:52:26;;;;;;;1999.90;999.90;;;;;;;19.40;83.73;95907.88;5028506;28;20529;-66
2022/08/06 04:54:51;;;;;;;1999.90;999.90;;;;;;;19.97;82.21;95901.38;5028429;28;20021;-66
2022/08/06 04:57:16;;;;;;;1999.90;999.90;;;;;;;19.74;81.49;95886.84;5040471;28;20045;-66
2022/08/06 04:59:42;;;;;;;1999.90;999.90;;;;;;;19.46;82.46;95884.91;5010773;28;20105;-65
2022/08/06 05:02:07;;;;;;;1999.90;999.90;;;;;;;19.17;82.75;95867.09;5039969;28;20489;-66
2022/08/06 05:04:33;;;;;;;1999.90;999.90;;;;;;;19.57;82.10;95889.81;5030436;28;20022;-66
2022/08/06 05:07:02;;;;;;;1999.90;999.90;;;;;;;19.56;82.61;95907.91;5010787;28;20054;-66
2022/08/06 05:09:28;;;;;;;1999.90;999.90;;;;;;;19.53;81.75;95873.50;5019244;28;20040;-66
2022/08/06 05:12:06;;;;;;;1999.90;999.90;;;;;;;19.71;80.75;95893.72;5012329;28;20387;-66
2022/08/06 05:14:45;;;;;;;1999.90;999.90;;;;;;;19.45;81.63;95860.97;5019407;28;20549;-66
2022/08/06 05:17:14;;;;;;;1999.90;999.90;;;;;;;19.62;81.10;95922.78;5026704;28;20104;-65
2022/08/06 05:19:47;;;;;;;1999.90;999.90;;;;;;;20.25;79.47;95901.31;5027725;28;20037;-65
2022/08/06 05:22:16;;;;;;;1999.90;999.90;;;;;;;20.06;78.48;95871.47;5026750;28;20041;-66
2022/08/06 05:24:41;;;;;;;1999.90;999.90;;;;;;;20.10;78.71;95934.47;5020042;28;20101;-65
2022/08/06 05:27:11;;;;;;;1999.90;999.90;;;;;;;19.96;78.64;95886.31;5028445;28;20095;-66
2022/08/06 05:29:39;;;;;;;1999.90;999.90;;;;;;;19.70;79.98;95896.75;5019294;28;20064;-66
2022/08/06 05:32:05;;;;;;;1999.90;999.90;;;;;;;19.74;79.68;95886.84;5026629;28;20021;-65
2022/08/06 05:34:31;;;;;;;1999.90;999.90;;;;;;;19.54;81.23;95910.16;5020223;28;20040;-66
2022/08/06 05:36:56;;;;;;;1999.90;999.90;;;;;;;19.34;79.79;95867.97;5027600;28;20440;-67
2022/08/06 05:39:22;;;;;;;1999.90;999.90;;;;;;;19.60;80.27;95943.13;5020358;28;20037;-66
2022/08/06 05:41:49;;;;;;;1999.90;999.90;;;;;;;18.70;82.51;95854.16;5008861;28;20058;-67
2022/08/06 05:44:14;;;;;;;1999.90;999.90;;;;;;;18.56;81.84;95836.72;5002889;28;20034;-66
2022/08/06 05:46:51;;;;;;;1999.90;999.90;;;;;;;19.20;82.12;95951.97;5004742;28;20471;-66
2022/08/06 05:49:28;;;;;;;1999.90;999.90;;;;;;;19.02;83.21;95948.69;5008673;28;20546;-65
2022/08/06 05:52:01;;;;;;;1999.90;999.90;;;;;;;18.32;83.50;95881.38;5019483;28;20486;-65
2022/08/06 05:54:35;;;;;;;1999.90;999.90;;;;;;;19.16;82.78;95953.75;5027590;28;20041;-65
2022/08/06 05:57:12;;;;;;;1999.90;999.90;;;;;;;18.81;82.93;95950.72;5029926;28;20021;-65
2022/08/06 05:59:41;;;;;;;1999.90;999.90;;;;;;;18.76;82.80;95918.59;5008618;28;20213;-65
2022/08/06 06:02:09;;;;;;;1999.90;999.90;;;;;;;18.85;81.78;95920.06;5007168;28;20061;-65
2022/08/06 06:04:36;;;;;;;1999.90;999.90;;;;;;;19.57;80.69;95974.25;5022879;28;20026;-65
2022/08/06 06:07:02;;;;;;;1999.90;999.90;;;;;;;18.94;81.71;95984.66;5010024;28;20352;-65
2022/08/06 06:09:28;;;;;;;1999.90;999.90;;;;;;;18.49;82.60;95972.00;5009322;28;20120;-66
2022/08/06 06:11:55;;;;;;;1999.90;999.90;;;;;;;18.47;82.33;95923.03;5010175;28;20017;-66
2022/08/06 06:14:43;;;;;;;1999.90;999.90;;;;;;;19.00;81.78;95990.63;5008711;28;20022;-68
2022/08/06 06:17:39;;;;;;;1999.90;999.90;;;;;;;18.87;81.71;95987.91;5007547;28;20029;-66
2022/08/06 06:20:07;;;;;;;1999.90;999.90;;;;;;;18.59;81.27;95997.72;4989719;28;20019;-66
2022/08/06 06:22:53;;;;;;;1999.90;999.90;;;;;;;19.32;79.90;95991.59;4990759;28;20111;-65
2022/08/06 06:25:27;;;;;;;1999.90;999.90;;;;;;;19.64;78.76;95998.78;5008141;28;20092;-65
2022/08/06 06:28:02;;;;;;;1999.90;999.90;;;;;;;18.95;78.96;95988.94;5002331;28;20023;-65
2022/08/06 06:30:46;;;;;;;1999.90;999.90;;;;;;;19.33;79.13;95991.25;4997335;28;20748;-64
2022/08/06 06:33:20;;;;;;;1999.90;999.90;;;;;;;18.54;80.04;96006.81;5023694;28;20025;-65
2022/08/06 06:35:57;;;;;;;1999.90;999.90;;;;;;;19.66;78.33;95996.53;5007895;28;20300;-66
2022/08/06 06:38:30;;;;;;;1999.90;999.90;;;;;;;19.11;78.38;95983.66;5009480;28;20044;-66
2022/08/06 06:41:10;;;;;;;1999.90;999.90;;;;;;;18.16;79.60;95940.47;5009442;28;20034;-66
2022/08/06 06:43:53;;;;;;;1999.90;999.90;;;;;;;18.92;79.65;96017.34;5007994;28;20029;-67
2022/08/06 06:46:27;;;;;;;1999.90;999.90;;;;;;;18.96;79.74;96022.84;5008605;28;20038;-67
2022/08/06 06:49:01;;;;;;;1999.90;999.90;;;;;;;18.97;79.87;96016.31;5008325;28;20405;-67
2022/08/06 06:51:41;;;;;;;1999.90;999.90;;;;;;;19.57;78.03;96019.34;5022873;28;20029;-66
2022/08/06 06:54:16;;;;;;;1999.90;999.90;;;;;;;18.74;78.96;96002.50;5007185;28;20026;-67
2022/08/06 06:56:45;;;;;;;1999.90;999.90;;;;;;;18.69;80.06;95997.31;5009590;28;20424;-66
2022/08/06 06:59:15;;;;;;;1999.90;999.90;;;;;;;19.17;78.37;96020.03;5008871;28;20062;-67
2022/08/06 07:01:42;;;;;;;1999.90;999.90;;;;;;;17.58;82.77;96009.50;5007504;28;20108;-67
2022/08/06 07:04:11;;;;;;;1999.90;999.90;;;;;;;16.92;85.49;96035.34;5007577;28;20026;-67
2022/08/06 07:06:38;;;;;;;1999.90;999.90;;;;;;;17.04;85.34;95990.53;5008160;28;20381;-66
2022/08/06 07:09:05;;;;;;;1999.90;999.90;;;;;;;17.39;83.54;96031.47;5007261;28;20104;-67
2022/08/06 07:11:33;;;;;;;1999.90;999.90;;;;;;;17.68;81.67;96019.88;5007642;28;20033;-66
2022/08/06 07:13:59;;;;;;;1999.90;999.90;;;;;;;18.31;80.47;96017.16;5007875;28;20173;-66
2022/08/06 07:16:27;;;;;;;1999.90;999.90;;;;;;;17.90;80.72;96026.88;5010651;28;20462;-66
2022/08/06 07:18:54;;;;;;;1999.90;999.90;;;;;;;17.98;80.37;96027.94;5012134;28;20060;-66
2022/08/06 07:21:20;;;;;;;1999.90;999.90;;;;;;;17.83;80.63;96047.38;5011815;28;20030;-68
2022/08/06 07:23:51;;;;;;;1999.90;999.90;;;;;;;17.80;80.62;96010.34;5012640;28;20052;-69
2022/08/06 07:26:18;;;;;;;1999.90;999.90;;;;;;;17.00;81.89;95986.94;5012677;28;20026;-65
2022/08/06 07:28:44;;;;;;;1999.90;999.90;;;;;;;17.64;81.33;96042.38;5010484;28;20029;-64
2022/08/06 07:31:11;;;;;;;1999.90;999.90;;;;;;;18.33;79.97;96020.34;5011116;28;20042;-64
2022/08/06 07:33:41;;;;;;;1999.90;999.90;;;;;;;18.24;79.94;96035.00;5007650;28;20038;-65
2022/08/06 07:36:07;;;;;;;1999.90;999.90;;;;;;;18.36;79.09;96045.81;5011887;28;20024;-66
2022/08/06 07:38:35;;;;;;;1999.90;999.90;;;;;;;19.16;77.39;96037.34;5011039;28;20030;-65
2022/08/06 07:41:03;;;;;;;1999.90;999.90;;;;;;;17.22;82.33;96055.75;5011699;28;20118;-65
2022/08/06 07:43:33;;;;;;;1999.90;999.90;;;;;;;17.13;82.52;96046.94;5010325;28;20161;-65
2022/08/06 07:46:02;;;;;;;1999.90;999.90;;;;;;;17.65;82.53;96060.88;5011724;28;20026;-65
2022/08/06 07:48:38;;;;;;;1999.90;999.90;;;;;;;17.71;81.74;96058.00;5009972;28;20037;-65
2022/08/06 07:51:05;;;;;;;1999.90;999.90;;;;;;;17.55;81.69;96047.81;5010675;28;20045;-68
2022/08/06 07:53:32;;;;;;;1999.90;999.90;;;;;;;18.33;79.74;96033.03;5010242;28;20025;-65
2022/08/06 07:55:59;;;;;;;1999.90;999.90;;;;;;;18.30;79.33;96066.78;5012861;28;20053;-64
2022/08/06 07:58:25;;;;;;;1999.90;999.90;;;;;;;17.59;81.24;96043.38;5009479;28;20046;-67
2022/08/06 08:00:50;;;;;;;1999.90;999.90;;;;;;;17.58;81.60;96073.28;5009988;28;20534;-70
2022/08/06 08:06:18;;;;;;;1999.90;999.90;;;;;;;18.77;78.85;96065.72;5000098;28;20103;-67
2022/08/06 08:08:48;;;;;;;1999.90;999.90;;;;;;;18.44;78.81;96044.94;5012330;28;20057;-67
2022/08/06 08:11:16;;;;;;;1999.90;999.90;;;;;;;17.95;79.37;96063.56;5009572;28;20064;-68
2022/08/06 08:13:42;;;;;;;1999.90;999.90;;;;;;;18.16;80.12;96064.34;5011841;28;20085;-67
2022/08/06 08:16:09;;;;;;;1999.90;999.90;;;;;;;18.05;80.54;96078.53;5011457;28;20037;-66
2022/08/06 08:18:35;;;;;;;1999.90;999.90;;;;;;;17.63;81.70;96067.72;5008759;28;20533;-66
2022/08/06 08:21:02;;;;;;;1999.90;999.90;;;;;;;17.56;80.57;96057.47;5009115;28;20125;-66
2022/08/06 08:23:32;;;;;;;1999.90;999.90;;;;;;;18.18;79.93;96070.22;5012039;28;20026;-67
2022/08/06 08:25:59;;;;;;;1999.90;999.90;;;;;;;18.41;78.67;96040.22;5026954;28;20026;-66
2022/08/06 08:28:25;;;;;;;1999.90;999.90;;;;;;;18.30;78.19;96065.97;5009911;28;20120;-67
2022/08/06 08:30:50;;;;;;;1999.90;999.90;;;;;;;18.02;79.60;96050.38;5009422;28;20110;-66
2022/08/06 08:33:18;;;;;;;1999.90;999.90;;;;;;;18.67;78.80;96064.97;5010814;28;20034;-66
2022/08/06 08:35:43;;;;;;;1999.90;999.90;;;;;;;18.81;77.86;96058.53;5010563;28;20092;-68
2022/08/06 08:38:09;;;;;;;1999.90;999.90;;;;;;;18.99;77.58;96089.59;5010440;28;20026;-68
2022/08/06 08:40:36;;;;;;;1999.90;999.90;;;;;;;18.85;77.42;96032.50;5009953;28;20382;-69
2022/08/06 08:43:02;;;;;;;1999.90;999.90;;;;;;;18.66;77.51;96087.66;5010474;28;20414;-66
2022/08/06 08:45:28;;;;;;;1999.90;999.90;;;;;;;19.03;77.69;96098.56;5010441;28;20037;-66
2022/08/06 08:47:56;;;;;;;1999.90;999.90;;;;;;;19.21;76.97;96093.78;5009908;28;20049;-66
2022/08/06 08:50:25;;;;;;;1999.90;999.90;;;;;;;19.47;76.33;96093.44;5008802;28;20030;-67
2022/08/06 08:52:54;;;;;;;1999.90;999.90;;;;;;;20.19;75.93;96086.38;5011325;28;20386;-66
2022/08/06 08:55:24;;;;;;;1999.90;999.90;;;;;;;20.50;74.73;96076.84;5011694;28;20364;-66
2022/08/06 08:57:52;;;;;;;1999.90;999.90;;;;;;;20.18;73.60;96081.34;5027046;28;20025;-65
2022/08/06 09:00:17;;;;;;;1999.90;999.90;;;;;;;20.06;74.18;96086.75;5023818;28;20036;-67
2022/08/06 09:02:44;;;;;;;1999.90;999.90;;;;;;;20.44;73.04;96105.22;5010380;28;20026;-65
2022/08/06 09:05:09;;;;;;;1999.90;999.90;;;;;;;20.20;73.61;96098.75;5008651;28;20038;-66
2022/08/06 09:07:34;;;;;;;1999.90;999.90;;;;;;;19.71;74.80;96039.47;5010507;28;20032;-67
2022/08/06 09:10:00;;;;;;;1999.90;999.90;;;;;;;20.11;74.55;96111.63;5008780;28;20041;-67
2022/08/06 09:12:25;;;;;;;1999.90;999.90;;;;;;;19.65;73.68;96086.69;5009588;28;20029;-67
2022/08/06 09:14:51;;;;;;;1999.90;999.90;;;;;;;20.31;73.27;96090.19;5009630;28;20117;-67
2022/08/06 09:17:17;;;;;;;1999.90;999.90;;;;;;;20.38;73.03;96117.41;5009570;28;20105;-67
2022/08/06 09:19:43;;;;;;;1999.90;999.90;;;;;;;20.43;73.62;96117.19;5007494;28;20041;-68
2022/08/06 09:22:09;;;;;;;1999.90;999.90;;;;;;;18.90;75.85;96094.28;5010464;28;20033;-67
2022/08/06 09:24:35;;;;;;;1999.90;999.90;;;;;;;19.43;75.63;96119.53;5011160;28;20463;-69
2022/08/06 09:27:12;;;;;;;1999.90;999.90;;;;;;;19.13;76.13;96122.41;5009610;28;20026;-68
2022/08/06 09:29:56;;;;;;;1999.90;999.90;;;;;;;19.57;75.48;96094.91;5009795;28;20064;-68
2022/08/06 09:32:42;;;;;;;1999.90;999.90;;;;;;;18.83;76.26;96094.03;5010240;28;20090;-68
2022/08/06 09:35:20;;;;;;;1999.90;999.90;;;;;;;19.53;76.24;96124.47;4999024;28;20045;-69
2022/08/06 09:37:45;;;;;;;1999.90;999.90;;;;;;;19.26;76.26;96106.25;5010803;28;20026;-70
2022/08/06 09:40:15;;;;;;;1999.90;999.90;;;;;;;19.15;76.55;96116.69;5008628;28;20312;-68
2022/08/06 09:42:43;;;;;;;1999.90;999.90;;;;;;;18.96;76.51;96125.31;5010220;28;20056;-69
2022/08/06 09:45:12;;;;;;;1999.90;999.90;;;;;;;19.74;75.33;96125.16;5008663;28;20072;-69
2022/08/06 09:47:38;;;;;;;1999.90;999.90;;;;;;;19.68;75.42;96114.94;5007184;28;20021;-69
2022/08/06 09:50:05;;;;;;;1999.90;999.90;;;;;;;20.35;74.72;96121.56;5009132;28;20359;-69
2022/08/06 09:52:30;;;;;;;1999.90;999.90;;;;;;;20.47;73.63;96113.47;5004959;28;20104;-68
2022/08/06 09:54:55;;;;;;;1999.90;999.90;;;;;;;18.94;75.35;96117.56;5009188;28;20161;-68
2022/08/06 09:57:26;;;;;;;1999.90;999.90;;;;;;;20.08;75.13;96123.13;5010470;28;20013;-68
2022/08/06 09:59:52;;;;;;;1999.90;999.90;;;;;;;20.23;74.46;96119.69;5009140;28;20022;-71
2022/08/06 10:02:20;;;;;;;1999.90;999.90;;;;;;;19.33;75.57;96128.84;5006249;28;20041;-69
2022/08/06 10:04:48;;;;;;;1999.90;999.90;;;;;;;19.03;76.25;96113.97;5006096;28;20030;-69
2022/08/06 10:07:15;;;;;;;1999.90;999.90;;;;;;;19.77;75.14;96123.72;5025551;28;20057;-68
2022/08/06 10:09:55;;;;;;;1999.90;999.90;;;;;;;20.09;73.95;96129.31;5009616;28;20057;-69
2022/08/06 10:12:23;;;;;;;1999.90;999.90;;;;;;;20.51;73.95;96114.34;5008632;28;20040;-68
2022/08/06 10:14:49;;;;;;;1999.90;999.90;;;;;;;19.93;72.37;96121.13;5009488;28;20423;-68
2022/08/06 10:17:17;;;;;;;1999.90;999.90;;;;;;;20.20;73.98;96122.28;5008737;28;20026;-69
2022/08/06 10:20:02;;;;;;;1999.90;999.90;;;;;;;19.48;75.74;96119.31;5007828;28;20111;-70
2022/08/06 10:22:27;;;;;;;1999.90;999.90;;;;;;;19.49;75.81;96120.88;4991717;28;20037;-69
2022/08/06 10:24:55;;;;;;;1999.90;999.90;;;;;;;19.77;75.02;96106.75;5009049;28;20026;-70
2022/08/06 10:27:25;;;;;;;1999.90;999.90;;;;;;;20.87;73.43;96120.72;5009008;28;20097;-70
2022/08/06 10:29:58;;;;;;;1999.90;999.90;;;;;;;20.58;70.42;96135.41;5007350;28;20026;-69
2022/08/06 10:32:31;;;;;;;1999.90;999.90;;;;;;;21.56;72.30;96123.25;5008070;28;20084;-69
2022/08/06 10:35:02;;;;;;;1999.90;999.90;;;;;;;21.52;70.27;96134.78;5002575;28;20041;-69
2022/08/06 10:37:27;;;;;;;1999.90;999.90;;;;;;;21.39;71.14;96113.56;5008397;28;20030;-67
2022/08/06 10:40:00;;;;;;;1999.90;999.90;;;;;;;20.69;70.57;96120.25;5007857;28;20092;-67
2022/08/06 10:42:26;;;;;;;1999.90;999.90;;;;;;;21.10;70.84;96139.88;5024630;28;20206;-66
2022/08/06 10:44:52;;;;;;;1999.90;999.90;;;;;;;19.84;73.01;96148.22;5024462;28;20756;-66
2022/08/06 10:47:18;;;;;;;1999.90;999.90;;;;;;;19.80;73.99;96138.44;5009377;28;20223;-65
2022/08/06 10:49:44;;;;;;;1999.90;999.90;;;;;;;19.94;73.21;96130.78;5007281;28;20050;-64
2022/08/06 10:52:12;;;;;;;1999.90;999.90;;;;;;;20.82;72.47;96115.56;5027435;28;20038;-67
2022/08/06 10:54:39;;;;;;;1999.90;999.90;;;;;;;21.25;71.25;96122.88;5013669;28;20030;-65
2022/08/06 10:57:08;;;;;;;1999.90;999.90;;;;;;;21.82;71.30;96133.53;5012633;28;20076;-64
2022/08/06 10:59:34;;;;;;;1999.90;999.90;;;;;;;21.48;70.22;96125.78;5013807;28;20445;-65
2022/08/06 11:02:11;;;;;;;1999.90;999.90;;;;;;;21.45;71.04;96134.63;5009545;28;20064;-65
2022/08/06 11:04:56;;;;;;;1999.90;999.90;;;;;;;21.68;71.08;96121.22;5010425;28;20087;-65